sensor_id;sensor_type;location;lat;lon;timestamp;P1;durP1;ratioP1;P2;durP2;ratioP2
38725;SDS011;24474;48.906;8.808;2023-06-10T00:00:41;9.50;;;6.18;;
38725;SDS011;24474;48.906;8.808;2023-06-10T00:03:08;10.00;;;6.50;;
38725;SDS011;24474;48.906;8.808;2023-06-10T00:05:34;7.70;;;6.07;;
38725;SDS011;24474;48.906;8.808;2023-06-10T00:08:01;9.15;;;6.47;;
38725;SDS011;24474;48.906;8.808;2023-06-10T00:10:32;8.98;;;6.55;;
38725;SDS011;24474;48.906;8.808;2023-06-10T00:13:00;8.23;;;5.88;;
38725;SDS011;24474;48.906;8.808;2023-06-10T00:15:26;9.90;;;6.53;;
38725;SDS011;24474;48.906;8.808;2023-06-10T00:17:52;9.35;;;5.68;;
38725;SDS011;24474;48.906;8.808;2023-06-10T00:20:18;6.80;;;6.10;;
38725;SDS011;24474;48.906;8.808;2023-06-10T00:22:43;10.65;;;6.20;;
38725;SDS011;24474;48.906;8.808;2023-06-10T00:25:10;8.80;;;6.35;;
38725;SDS011;24474;48.906;8.808;2023-06-10T00:27:36;8.90;;;5.75;;
38725;SDS011;24474;48.906;8.808;2023-06-10T00:30:03;7.88;;;6.10;;
38725;SDS011;24474;48.906;8.808;2023-06-10T00:32:32;8.27;;;6.00;;
38725;SDS011;24474;48.906;8.808;2023-06-10T00:34:58;6.93;;;6.22;;
38725;SDS011;24474;48.906;8.808;2023-06-10T00:37:24;8.18;;;6.00;;
38725;SDS011;24474;48.906;8.808;2023-06-10T00:39:50;8.43;;;6.10;;
38725;SDS011;24474;48.906;8.808;2023-06-10T00:42:16;9.40;;;5.90;;
38725;SDS011;24474;48.906;8.808;2023-06-10T00:44:41;7.80;;;6.20;;
38725;SDS011;24474;48.906;8.808;2023-06-10T00:47:07;7.93;;;6.20;;
38725;SDS011;24474;48.906;8.808;2023-06-10T00:49:33;7.50;;;6.22;;
38725;SDS011;24474;48.906;8.808;2023-06-10T00:52:03;7.07;;;6.03;;
38725;SDS011;24474;48.906;8.808;2023-06-10T00:54:33;6.70;;;5.32;;
38725;SDS011;24474;48.906;8.808;2023-06-10T00:57:00;6.88;;;5.55;;
38725;SDS011;24474;48.906;8.808;2023-06-10T00:59:26;10.38;;;5.35;;
38725;SDS011;24474;48.906;8.808;2023-06-10T01:01:57;8.20;;;6.18;;
38725;SDS011;24474;48.906;8.808;2023-06-10T01:04:23;9.40;;;6.78;;
38725;SDS011;24474;48.906;8.808;2023-06-10T01:09:21;7.32;;;6.20;;
38725;SDS011;24474;48.906;8.808;2023-06-10T01:15:13;8.85;;;6.18;;
38725;SDS011;24474;48.906;8.808;2023-06-10T01:20:28;6.68;;;5.97;;
38725;SDS011;24474;48.906;8.808;2023-06-10T01:22:57;8.13;;;6.38;;
38725;SDS011;24474;48.906;8.808;2023-06-10T01:25:24;7.05;;;6.28;;
38725;SDS011;24474;48.906;8.808;2023-06-10T01:27:54;6.82;;;5.68;;
38725;SDS011;24474;48.906;8.808;2023-06-10T01:30:27;7.07;;;5.80;;
38725;SDS011;24474;48.906;8.808;2023-06-10T01:32:59;8.63;;;5.97;;
38725;SDS011;24474;48.906;8.808;2023-06-10T01:35:26;8.65;;;5.90;;
38725;SDS011;24474;48.906;8.808;2023-06-10T01:37:55;7.47;;;6.00;;
38725;SDS011;24474;48.906;8.808;2023-06-10T01:40:23;9.32;;;6.22;;
38725;SDS011;24474;48.906;8.808;2023-06-10T01:42:50;7.95;;;5.65;;
38725;SDS011;24474;48.906;8.808;2023-06-10T01:45:17;8.20;;;6.30;;
38725;SDS011;24474;48.906;8.808;2023-06-10T01:47:43;7.60;;;6.18;;
38725;SDS011;24474;48.906;8.808;2023-06-10T01:50:08;7.65;;;6.40;;
38725;SDS011;24474;48.906;8.808;2023-06-10T01:52:34;7.60;;;6.47;;
38725;SDS011;24474;48.906;8.808;2023-06-10T01:55:00;7.90;;;5.80;;
38725;SDS011;24474;48.906;8.808;2023-06-10T01:57:25;8.50;;;6.03;;
38725;SDS011;24474;48.906;8.808;2023-06-10T01:59:51;8.20;;;6.40;;
38725;SDS011;24474;48.906;8.808;2023-06-10T02:02:17;8.52;;;6.13;;
38725;SDS011;24474;48.906;8.808;2023-06-10T02:04:43;9.35;;;6.07;;
38725;SDS011;24474;48.906;8.808;2023-06-10T02:07:08;6.97;;;5.95;;
38725;SDS011;24474;48.906;8.808;2023-06-10T02:09:34;8.30;;;6.45;;
38725;SDS011;24474;48.906;8.808;2023-06-10T02:12:01;9.30;;;6.53;;
38725;SDS011;24474;48.906;8.808;2023-06-10T02:14:28;8.27;;;5.80;;
38725;SDS011;24474;48.906;8.808;2023-06-10T02:16:54;7.30;;;6.55;;
38725;SDS011;24474;48.906;8.808;2023-06-10T02:19:23;9.23;;;6.97;;
38725;SDS011;24474;48.906;8.808;2023-06-10T02:21:51;6.93;;;6.07;;
38725;SDS011;24474;48.906;8.808;2023-06-10T02:24:20;10.05;;;6.80;;
38725;SDS011;24474;48.906;8.808;2023-06-10T02:26:46;7.60;;;6.32;;
38725;SDS011;24474;48.906;8.808;2023-06-10T02:29:12;8.43;;;5.88;;
38725;SDS011;24474;48.906;8.808;2023-06-10T02:31:41;7.25;;;6.55;;
38725;SDS011;24474;48.906;8.808;2023-06-10T02:34:07;8.20;;;6.60;;
38725;SDS011;24474;48.906;8.808;2023-06-10T02:36:33;6.75;;;6.05;;
38725;SDS011;24474;48.906;8.808;2023-06-10T02:39:00;7.38;;;6.15;;
38725;SDS011;24474;48.906;8.808;2023-06-10T02:41:27;7.82;;;6.50;;
38725;SDS011;24474;48.906;8.808;2023-06-10T02:43:53;8.45;;;6.32;;
38725;SDS011;24474;48.906;8.808;2023-06-10T02:46:19;7.82;;;6.15;;
38725;SDS011;24474;48.906;8.808;2023-06-10T02:48:47;8.07;;;6.57;;
38725;SDS011;24474;48.906;8.808;2023-06-10T02:51:14;8.07;;;6.50;;
38725;SDS011;24474;48.906;8.808;2023-06-10T02:53:39;7.68;;;6.40;;
38725;SDS011;24474;48.906;8.808;2023-06-10T02:56:05;7.80;;;6.80;;
38725;SDS011;24474;48.906;8.808;2023-06-10T02:58:31;7.22;;;6.43;;
38725;SDS011;24474;48.906;8.808;2023-06-10T03:00:57;8.02;;;6.32;;
38725;SDS011;24474;48.906;8.808;2023-06-10T03:03:24;9.45;;;5.78;;
38725;SDS011;24474;48.906;8.808;2023-06-10T03:05:50;9.48;;;7.45;;
38725;SDS011;24474;48.906;8.808;2023-06-10T03:08:16;16.50;;;11.32;;
38725;SDS011;24474;48.906;8.808;2023-06-10T03:10:42;39.92;;;20.65;;
38725;SDS011;24474;48.906;8.808;2023-06-10T03:13:07;28.88;;;16.20;;
38725;SDS011;24474;48.906;8.808;2023-06-10T03:15:35;23.52;;;13.65;;
38725;SDS011;24474;48.906;8.808;2023-06-10T03:18:01;33.17;;;16.83;;
38725;SDS011;24474;48.906;8.808;2023-06-10T03:20:27;10.90;;;8.75;;
38725;SDS011;24474;48.906;8.808;2023-06-10T03:22:53;11.70;;;8.68;;
38725;SDS011;24474;48.906;8.808;2023-06-10T03:25:19;10.98;;;7.95;;
38725;SDS011;24474;48.906;8.808;2023-06-10T03:27:45;28.15;;;15.27;;
38725;SDS011;24474;48.906;8.808;2023-06-10T03:30:12;23.50;;;12.52;;
38725;SDS011;24474;48.906;8.808;2023-06-10T03:32:38;24.70;;;13.18;;
38725;SDS011;24474;48.906;8.808;2023-06-10T03:35:04;24.38;;;13.75;;
38725;SDS011;24474;48.906;8.808;2023-06-10T03:37:31;18.48;;;11.77;;
38725;SDS011;24474;48.906;8.808;2023-06-10T03:39:57;17.15;;;10.43;;
38725;SDS011;24474;48.906;8.808;2023-06-10T03:42:22;15.55;;;10.32;;
38725;SDS011;24474;48.906;8.808;2023-06-10T03:44:48;15.40;;;9.38;;
38725;SDS011;24474;48.906;8.808;2023-06-10T03:47:14;11.38;;;7.95;;
38725;SDS011;24474;48.906;8.808;2023-06-10T03:49:39;9.50;;;7.50;;
38725;SDS011;24474;48.906;8.808;2023-06-10T03:52:06;7.85;;;6.45;;
38725;SDS011;24474;48.906;8.808;2023-06-10T03:54:32;8.32;;;6.82;;
38725;SDS011;24474;48.906;8.808;2023-06-10T03:56:59;7.30;;;6.50;;
38725;SDS011;24474;48.906;8.808;2023-06-10T03:59:25;8.52;;;6.35;;
38725;SDS011;24474;48.906;8.808;2023-06-10T04:01:51;8.23;;;5.75;;
38725;SDS011;24474;48.906;8.808;2023-06-10T04:04:17;7.00;;;5.80;;
38725;SDS011;24474;48.906;8.808;2023-06-10T04:06:42;7.20;;;5.57;;
38725;SDS011;24474;48.906;8.808;2023-06-10T04:09:11;6.75;;;5.72;;
38725;SDS011;24474;48.906;8.808;2023-06-10T04:11:37;6.78;;;5.65;;
38725;SDS011;24474;48.906;8.808;2023-06-10T04:14:03;7.72;;;5.82;;
38725;SDS011;24474;48.906;8.808;2023-06-10T04:16:29;7.40;;;5.35;;
38725;SDS011;24474;48.906;8.808;2023-06-10T04:18:55;12.02;;;5.60;;
38725;SDS011;24474;48.906;8.808;2023-06-10T04:21:20;7.05;;;5.28;;
38725;SDS011;24474;48.906;8.808;2023-06-10T04:23:46;6.38;;;5.07;;
38725;SDS011;24474;48.906;8.808;2023-06-10T04:26:12;8.57;;;5.50;;
38725;SDS011;24474;48.906;8.808;2023-06-10T04:28:38;7.15;;;5.28;;
38725;SDS011;24474;48.906;8.808;2023-06-10T04:31:03;8.00;;;5.20;;
38725;SDS011;24474;48.906;8.808;2023-06-10T04:33:30;6.10;;;4.82;;
38725;SDS011;24474;48.906;8.808;2023-06-10T04:35:56;7.75;;;5.60;;
38725;SDS011;24474;48.906;8.808;2023-06-10T04:38:22;6.07;;;4.93;;
38725;SDS011;24474;48.906;8.808;2023-06-10T04:40:48;8.23;;;5.30;;
38725;SDS011;24474;48.906;8.808;2023-06-10T04:43:13;6.38;;;5.38;;
38725;SDS011;24474;48.906;8.808;2023-06-10T04:45:39;6.70;;;5.18;;
38725;SDS011;24474;48.906;8.808;2023-06-10T04:48:05;7.55;;;4.97;;
38725;SDS011;24474;48.906;8.808;2023-06-10T04:50:32;6.38;;;5.03;;
38725;SDS011;24474;48.906;8.808;2023-06-10T04:52:58;6.22;;;4.72;;
38725;SDS011;24474;48.906;8.808;2023-06-10T04:55:24;6.05;;;4.65;;
38725;SDS011;24474;48.906;8.808;2023-06-10T04:57:52;6.78;;;5.22;;
38725;SDS011;24474;48.906;8.808;2023-06-10T05:00:18;6.85;;;4.82;;
38725;SDS011;24474;48.906;8.808;2023-06-10T05:02:44;6.95;;;4.88;;
38725;SDS011;24474;48.906;8.808;2023-06-10T05:05:10;6.93;;;5.25;;
38725;SDS011;24474;48.906;8.808;2023-06-10T05:07:36;6.63;;;5.18;;
38725;SDS011;24474;48.906;8.808;2023-06-10T05:10:02;6.30;;;5.07;;
38725;SDS011;24474;48.906;8.808;2023-06-10T05:12:28;7.40;;;5.43;;
38725;SDS011;24474;48.906;8.808;2023-06-10T05:14:53;8.57;;;5.68;;
38725;SDS011;24474;48.906;8.808;2023-06-10T05:17:20;6.22;;;5.07;;
38725;SDS011;24474;48.906;8.808;2023-06-10T05:19:46;6.72;;;5.50;;
38725;SDS011;24474;48.906;8.808;2023-06-10T05:22:12;6.63;;;5.10;;
38725;SDS011;24474;48.906;8.808;2023-06-10T05:24:38;6.57;;;5.40;;
38725;SDS011;24474;48.906;8.808;2023-06-10T05:27:04;7.65;;;5.00;;
38725;SDS011;24474;48.906;8.808;2023-06-10T05:29:33;5.55;;;4.43;;
38725;SDS011;24474;48.906;8.808;2023-06-10T05:32:00;6.47;;;4.88;;
38725;SDS011;24474;48.906;8.808;2023-06-10T05:34:29;7.22;;;4.68;;
38725;SDS011;24474;48.906;8.808;2023-06-10T05:37:00;6.32;;;4.95;;
38725;SDS011;24474;48.906;8.808;2023-06-10T05:39:27;4.95;;;4.40;;
38725;SDS011;24474;48.906;8.808;2023-06-10T05:41:53;6.13;;;4.60;;
38725;SDS011;24474;48.906;8.808;2023-06-10T05:44:19;5.32;;;4.15;;
38725;SDS011;24474;48.906;8.808;2023-06-10T05:46:46;5.43;;;4.20;;
38725;SDS011;24474;48.906;8.808;2023-06-10T05:49:12;5.53;;;4.35;;
38725;SDS011;24474;48.906;8.808;2023-06-10T05:51:38;5.40;;;4.18;;
38725;SDS011;24474;48.906;8.808;2023-06-10T05:54:05;7.28;;;4.38;;
38725;SDS011;24474;48.906;8.808;2023-06-10T05:56:32;5.38;;;4.05;;
38725;SDS011;24474;48.906;8.808;2023-06-10T05:58:59;5.15;;;3.80;;
38725;SDS011;24474;48.906;8.808;2023-06-10T06:01:28;5.90;;;4.40;;
38725;SDS011;24474;48.906;8.808;2023-06-10T06:06:26;5.65;;;4.10;;
38725;SDS011;24474;48.906;8.808;2023-06-10T06:08:51;5.10;;;4.10;;
38725;SDS011;24474;48.906;8.808;2023-06-10T06:11:17;4.88;;;4.30;;
38725;SDS011;24474;48.906;8.808;2023-06-10T06:13:44;6.72;;;4.28;;
38725;SDS011;24474;48.906;8.808;2023-06-10T06:16:09;5.63;;;4.10;;
38725;SDS011;24474;48.906;8.808;2023-06-10T06:18:36;6.35;;;4.40;;
38725;SDS011;24474;48.906;8.808;2023-06-10T06:21:02;7.68;;;4.40;;
38725;SDS011;24474;48.906;8.808;2023-06-10T06:23:27;5.45;;;4.30;;
38725;SDS011;24474;48.906;8.808;2023-06-10T06:25:53;5.15;;;4.05;;
38725;SDS011;24474;48.906;8.808;2023-06-10T06:28:19;6.40;;;4.65;;
38725;SDS011;24474;48.906;8.808;2023-06-10T06:30:46;7.22;;;4.50;;
38725;SDS011;24474;48.906;8.808;2023-06-10T06:33:11;4.53;;;3.85;;
38725;SDS011;24474;48.906;8.808;2023-06-10T06:35:37;6.07;;;4.90;;
38725;SDS011;24474;48.906;8.808;2023-06-10T06:38:03;5.68;;;4.53;;
38725;SDS011;24474;48.906;8.808;2023-06-10T06:40:29;6.85;;;4.25;;
38725;SDS011;24474;48.906;8.808;2023-06-10T06:42:55;7.00;;;4.47;;
38725;SDS011;24474;48.906;8.808;2023-06-10T06:45:20;6.93;;;4.60;;
38725;SDS011;24474;48.906;8.808;2023-06-10T06:47:46;7.47;;;4.40;;
38725;SDS011;24474;48.906;8.808;2023-06-10T06:50:12;6.13;;;4.18;;
38725;SDS011;24474;48.906;8.808;2023-06-10T06:52:37;6.43;;;4.57;;
38725;SDS011;24474;48.906;8.808;2023-06-10T06:55:03;6.00;;;4.70;;
38725;SDS011;24474;48.906;8.808;2023-06-10T06:57:29;4.90;;;4.22;;
38725;SDS011;24474;48.906;8.808;2023-06-10T06:59:55;6.20;;;4.82;;
38725;SDS011;24474;48.906;8.808;2023-06-10T07:02:21;5.97;;;4.68;;
38725;SDS011;24474;48.906;8.808;2023-06-10T07:04:46;5.10;;;4.45;;
38725;SDS011;24474;48.906;8.808;2023-06-10T07:07:14;6.28;;;4.32;;
38725;SDS011;24474;48.906;8.808;2023-06-10T07:09:40;5.45;;;4.80;;
38725;SDS011;24474;48.906;8.808;2023-06-10T07:12:06;7.13;;;4.53;;
38725;SDS011;24474;48.906;8.808;2023-06-10T07:14:32;5.63;;;4.63;;
38725;SDS011;24474;48.906;8.808;2023-06-10T07:16:58;6.07;;;4.50;;
38725;SDS011;24474;48.906;8.808;2023-06-10T07:19:24;4.82;;;4.35;;
38725;SDS011;24474;48.906;8.808;2023-06-10T07:21:49;5.63;;;4.47;;
38725;SDS011;24474;48.906;8.808;2023-06-10T07:24:15;5.88;;;4.95;;
38725;SDS011;24474;48.906;8.808;2023-06-10T07:26:41;5.80;;;5.00;;
38725;SDS011;24474;48.906;8.808;2023-06-10T07:29:06;6.57;;;4.82;;
38725;SDS011;24474;48.906;8.808;2023-06-10T07:31:32;5.18;;;4.30;;
38725;SDS011;24474;48.906;8.808;2023-06-10T07:33:58;7.72;;;4.90;;
38725;SDS011;24474;48.906;8.808;2023-06-10T07:36:26;5.40;;;4.18;;
38725;SDS011;24474;48.906;8.808;2023-06-10T07:38:53;5.10;;;4.35;;
38725;SDS011;24474;48.906;8.808;2023-06-10T07:41:19;5.65;;;4.40;;
38725;SDS011;24474;48.906;8.808;2023-06-10T07:43:45;8.57;;;4.78;;
38725;SDS011;24474;48.906;8.808;2023-06-10T07:46:11;6.75;;;4.57;;
38725;SDS011;24474;48.906;8.808;2023-06-10T07:48:40;5.85;;;4.35;;
38725;SDS011;24474;48.906;8.808;2023-06-10T07:51:06;6.50;;;4.43;;
38725;SDS011;24474;48.906;8.808;2023-06-10T07:53:32;5.68;;;4.68;;
38725;SDS011;24474;48.906;8.808;2023-06-10T07:55:57;6.22;;;4.53;;
38725;SDS011;24474;48.906;8.808;2023-06-10T07:58:23;5.47;;;4.28;;
38725;SDS011;24474;48.906;8.808;2023-06-10T08:00:49;5.75;;;4.35;;
38725;SDS011;24474;48.906;8.808;2023-06-10T08:03:14;8.75;;;4.50;;
38725;SDS011;24474;48.906;8.808;2023-06-10T08:05:40;5.78;;;3.97;;
38725;SDS011;24474;48.906;8.808;2023-06-10T08:08:06;5.85;;;4.50;;
38725;SDS011;24474;48.906;8.808;2023-06-10T08:10:31;6.82;;;4.53;;
38725;SDS011;24474;48.906;8.808;2023-06-10T08:12:58;5.68;;;4.40;;
38725;SDS011;24474;48.906;8.808;2023-06-10T08:15:23;6.72;;;4.28;;
38725;SDS011;24474;48.906;8.808;2023-06-10T08:17:49;5.13;;;4.47;;
38725;SDS011;24474;48.906;8.808;2023-06-10T08:20:15;7.13;;;4.25;;
38725;SDS011;24474;48.906;8.808;2023-06-10T08:22:40;5.40;;;4.38;;
38725;SDS011;24474;48.906;8.808;2023-06-10T08:25:07;5.93;;;3.85;;
38725;SDS011;24474;48.906;8.808;2023-06-10T08:27:33;5.40;;;4.30;;
38725;SDS011;24474;48.906;8.808;2023-06-10T08:29:59;5.60;;;4.40;;
38725;SDS011;24474;48.906;8.808;2023-06-10T08:32:25;5.43;;;4.35;;
38725;SDS011;24474;48.906;8.808;2023-06-10T08:34:52;5.72;;;4.78;;
38725;SDS011;24474;48.906;8.808;2023-06-10T08:37:18;5.82;;;4.68;;
38725;SDS011;24474;48.906;8.808;2023-06-10T08:39:43;5.53;;;4.47;;
38725;SDS011;24474;48.906;8.808;2023-06-10T08:42:28;5.93;;;4.45;;
38725;SDS011;24474;48.906;8.808;2023-06-10T08:44:58;7.32;;;4.28;;
38725;SDS011;24474;48.906;8.808;2023-06-10T08:47:28;7.93;;;4.53;;
38725;SDS011;24474;48.906;8.808;2023-06-10T08:50:02;5.95;;;4.22;;
38725;SDS011;24474;48.906;8.808;2023-06-10T08:52:29;8.23;;;4.68;;
38725;SDS011;24474;48.906;8.808;2023-06-10T08:55:03;5.10;;;4.15;;
38725;SDS011;24474;48.906;8.808;2023-06-10T08:57:33;6.38;;;4.38;;
38725;SDS011;24474;48.906;8.808;2023-06-10T09:00:00;8.40;;;4.53;;
38725;SDS011;24474;48.906;8.808;2023-06-10T09:02:26;6.13;;;4.20;;
38725;SDS011;24474;48.906;8.808;2023-06-10T09:04:52;6.13;;;4.30;;
38725;SDS011;24474;48.906;8.808;2023-06-10T09:07:20;6.15;;;3.95;;
38725;SDS011;24474;48.906;8.808;2023-06-10T09:09:48;6.00;;;4.03;;
38725;SDS011;24474;48.906;8.808;2023-06-10T09:12:15;4.18;;;3.65;;
38725;SDS011;24474;48.906;8.808;2023-06-10T09:14:41;6.15;;;3.83;;
38725;SDS011;24474;48.906;8.808;2023-06-10T09:17:07;4.97;;;4.20;;
38725;SDS011;24474;48.906;8.808;2023-06-10T09:19:36;4.40;;;3.63;;
38725;SDS011;24474;48.906;8.808;2023-06-10T09:22:03;4.82;;;3.72;;
38725;SDS011;24474;48.906;8.808;2023-06-10T09:24:29;5.28;;;3.83;;
38725;SDS011;24474;48.906;8.808;2023-06-10T09:27:05;5.70;;;3.85;;
38725;SDS011;24474;48.906;8.808;2023-06-10T09:32:28;6.35;;;3.90;;
38725;SDS011;24474;48.906;8.808;2023-06-10T09:34:55;5.32;;;3.85;;
38725;SDS011;24474;48.906;8.808;2023-06-10T09:37:21;5.65;;;3.70;;
38725;SDS011;24474;48.906;8.808;2023-06-10T09:40:03;5.57;;;4.10;;
38725;SDS011;24474;48.906;8.808;2023-06-10T09:42:34;5.05;;;4.10;;
38725;SDS011;24474;48.906;8.808;2023-06-10T09:45:05;5.00;;;3.92;;
38725;SDS011;24474;48.906;8.808;2023-06-10T09:47:32;5.20;;;3.90;;
38725;SDS011;24474;48.906;8.808;2023-06-10T09:49:58;5.57;;;4.43;;
38725;SDS011;24474;48.906;8.808;2023-06-10T09:52:24;4.30;;;3.70;;
38725;SDS011;24474;48.906;8.808;2023-06-10T09:54:52;5.55;;;4.00;;
38725;SDS011;24474;48.906;8.808;2023-06-10T09:57:30;10.70;;;4.28;;
38725;SDS011;24474;48.906;8.808;2023-06-10T10:00:04;4.60;;;3.67;;
38725;SDS011;24474;48.906;8.808;2023-06-10T10:02:32;4.38;;;3.67;;
38725;SDS011;24474;48.906;8.808;2023-06-10T10:05:08;5.85;;;3.63;;
38725;SDS011;24474;48.906;8.808;2023-06-10T10:07:34;7.15;;;3.80;;
38725;SDS011;24474;48.906;8.808;2023-06-10T10:10:00;5.03;;;3.70;;
38725;SDS011;24474;48.906;8.808;2023-06-10T10:12:26;6.88;;;3.70;;
38725;SDS011;24474;48.906;8.808;2023-06-10T10:14:51;7.10;;;4.55;;
38725;SDS011;24474;48.906;8.808;2023-06-10T10:17:20;5.55;;;3.85;;
38725;SDS011;24474;48.906;8.808;2023-06-10T10:19:58;5.50;;;3.40;;
38725;SDS011;24474;48.906;8.808;2023-06-10T10:22:29;5.38;;;3.63;;
38725;SDS011;24474;48.906;8.808;2023-06-10T10:25:01;6.75;;;4.03;;
38725;SDS011;24474;48.906;8.808;2023-06-10T10:30:01;7.35;;;4.10;;
38725;SDS011;24474;48.906;8.808;2023-06-10T10:33:19;7.22;;;4.28;;
38725;SDS011;24474;48.906;8.808;2023-06-10T10:35:26;7.28;;;4.47;;
38725;SDS011;24474;48.906;8.808;2023-06-10T10:37:52;6.72;;;4.25;;
38725;SDS011;24474;48.906;8.808;2023-06-10T10:40:22;7.13;;;4.00;;
38725;SDS011;24474;48.906;8.808;2023-06-10T10:42:49;5.90;;;4.47;;
38725;SDS011;24474;48.906;8.808;2023-06-10T10:45:15;4.07;;;3.40;;
38725;SDS011;24474;48.906;8.808;2023-06-10T10:47:41;5.13;;;3.75;;
38725;SDS011;24474;48.906;8.808;2023-06-10T10:50:16;5.93;;;4.55;;
38725;SDS011;24474;48.906;8.808;2023-06-10T10:52:51;7.82;;;5.70;;
38725;SDS011;24474;48.906;8.808;2023-06-10T10:55:21;6.75;;;4.13;;
38725;SDS011;24474;48.906;8.808;2023-06-10T10:57:54;7.55;;;5.25;;
38725;SDS011;24474;48.906;8.808;2023-06-10T11:00:28;8.85;;;7.95;;
38725;SDS011;24474;48.906;8.808;2023-06-10T11:06:20;7.20;;;4.25;;
38725;SDS011;24474;48.906;8.808;2023-06-10T11:08:47;6.03;;;3.90;;
38725;SDS011;24474;48.906;8.808;2023-06-10T11:11:25;8.07;;;5.53;;
38725;SDS011;24474;48.906;8.808;2023-06-10T11:16:31;5.68;;;3.65;;
38725;SDS011;24474;48.906;8.808;2023-06-10T11:19:07;6.57;;;4.18;;
38725;SDS011;24474;48.906;8.808;2023-06-10T11:21:37;4.60;;;3.60;;
38725;SDS011;24474;48.906;8.808;2023-06-10T11:24:26;6.13;;;3.78;;
38725;SDS011;24474;48.906;8.808;2023-06-10T11:26:53;6.05;;;3.30;;
38725;SDS011;24474;48.906;8.808;2023-06-10T11:29:18;4.20;;;3.63;;
38725;SDS011;24474;48.906;8.808;2023-06-10T11:31:46;6.25;;;4.40;;
38725;SDS011;24474;48.906;8.808;2023-06-10T11:34:15;6.50;;;3.70;;
38725;SDS011;24474;48.906;8.808;2023-06-10T11:36:48;5.03;;;3.75;;
38725;SDS011;24474;48.906;8.808;2023-06-10T11:39:14;4.30;;;3.80;;
38725;SDS011;24474;48.906;8.808;2023-06-10T11:41:41;4.43;;;3.47;;
38725;SDS011;24474;48.906;8.808;2023-06-10T11:44:08;4.75;;;3.85;;
38725;SDS011;24474;48.906;8.808;2023-06-10T11:46:38;6.10;;;3.78;;
38725;SDS011;24474;48.906;8.808;2023-06-10T11:49:04;4.57;;;3.72;;
38725;SDS011;24474;48.906;8.808;2023-06-10T11:51:34;4.60;;;3.30;;
38725;SDS011;24474;48.906;8.808;2023-06-10T11:54:02;5.10;;;3.70;;
38725;SDS011;24474;48.906;8.808;2023-06-10T11:56:31;5.28;;;3.50;;
38725;SDS011;24474;48.906;8.808;2023-06-10T12:01:23;4.47;;;3.67;;
38725;SDS011;24474;48.906;8.808;2023-06-10T12:04:25;5.07;;;3.50;;
38725;SDS011;24474;48.906;8.808;2023-06-10T12:06:52;4.93;;;3.22;;
38725;SDS011;24474;48.906;8.808;2023-06-10T12:11:58;6.15;;;4.80;;
38725;SDS011;24474;48.906;8.808;2023-06-10T12:19:57;4.38;;;3.40;;
38725;SDS011;24474;48.906;8.808;2023-06-10T12:22:23;5.93;;;3.30;;
38725;SDS011;24474;48.906;8.808;2023-06-10T12:25:03;4.13;;;3.22;;
38725;SDS011;24474;48.906;8.808;2023-06-10T12:27:31;4.00;;;2.95;;
38725;SDS011;24474;48.906;8.808;2023-06-10T12:29:58;5.53;;;3.15;;
38725;SDS011;24474;48.906;8.808;2023-06-10T12:32:42;3.90;;;2.88;;
38725;SDS011;24474;48.906;8.808;2023-06-10T12:35:09;4.35;;;3.30;;
38725;SDS011;24474;48.906;8.808;2023-06-10T12:37:37;4.57;;;3.10;;
38725;SDS011;24474;48.906;8.808;2023-06-10T12:40:04;3.40;;;2.65;;
38725;SDS011;24474;48.906;8.808;2023-06-10T12:42:39;4.63;;;3.13;;
38725;SDS011;24474;48.906;8.808;2023-06-10T12:45:06;4.53;;;3.22;;
38725;SDS011;24474;48.906;8.808;2023-06-10T12:47:35;4.93;;;3.08;;
38725;SDS011;24474;48.906;8.808;2023-06-10T12:50:05;4.80;;;3.00;;
38725;SDS011;24474;48.906;8.808;2023-06-10T12:52:31;4.47;;;3.30;;
38725;SDS011;24474;48.906;8.808;2023-06-10T12:55:00;4.70;;;3.30;;
38725;SDS011;24474;48.906;8.808;2023-06-10T12:57:26;3.67;;;3.10;;
38725;SDS011;24474;48.906;8.808;2023-06-10T12:59:52;4.72;;;2.97;;
38725;SDS011;24474;48.906;8.808;2023-06-10T13:02:18;3.30;;;2.90;;
38725;SDS011;24474;48.906;8.808;2023-06-10T13:04:45;3.65;;;3.00;;
38725;SDS011;24474;48.906;8.808;2023-06-10T13:07:11;3.53;;;2.85;;
38725;SDS011;24474;48.906;8.808;2023-06-10T13:09:37;3.85;;;2.85;;
38725;SDS011;24474;48.906;8.808;2023-06-10T13:12:03;6.32;;;3.28;;
38725;SDS011;24474;48.906;8.808;2023-06-10T13:14:29;6.13;;;2.95;;
38725;SDS011;24474;48.906;8.808;2023-06-10T13:16:55;4.15;;;2.92;;
38725;SDS011;24474;48.906;8.808;2023-06-10T13:19:21;4.20;;;3.22;;
38725;SDS011;24474;48.906;8.808;2023-06-10T13:21:47;4.97;;;3.22;;
38725;SDS011;24474;48.906;8.808;2023-06-10T13:24:13;4.15;;;3.10;;
38725;SDS011;24474;48.906;8.808;2023-06-10T13:26:39;6.55;;;3.20;;
38725;SDS011;24474;48.906;8.808;2023-06-10T13:29:05;4.40;;;3.10;;
38725;SDS011;24474;48.906;8.808;2023-06-10T13:31:30;4.22;;;3.22;;
38725;SDS011;24474;48.906;8.808;2023-06-10T13:33:57;4.20;;;3.05;;
38725;SDS011;24474;48.906;8.808;2023-06-10T13:36:23;4.22;;;2.80;;
38725;SDS011;24474;48.906;8.808;2023-06-10T13:38:49;3.90;;;3.00;;
38725;SDS011;24474;48.906;8.808;2023-06-10T13:41:15;3.88;;;2.90;;
38725;SDS011;24474;48.906;8.808;2023-06-10T13:43:41;3.92;;;2.80;;
38725;SDS011;24474;48.906;8.808;2023-06-10T13:46:06;5.50;;;2.85;;
38725;SDS011;24474;48.906;8.808;2023-06-10T13:48:32;3.35;;;2.85;;
38725;SDS011;24474;48.906;8.808;2023-06-10T13:50:58;4.03;;;2.78;;
38725;SDS011;24474;48.906;8.808;2023-06-10T13:53:25;2.97;;;2.42;;
38725;SDS011;24474;48.906;8.808;2023-06-10T13:55:51;7.25;;;3.13;;
38725;SDS011;24474;48.906;8.808;2023-06-10T13:58:17;3.95;;;2.80;;
38725;SDS011;24474;48.906;8.808;2023-06-10T14:00:43;4.60;;;2.90;;
38725;SDS011;24474;48.906;8.808;2023-06-10T14:03:08;3.30;;;2.58;;
38725;SDS011;24474;48.906;8.808;2023-06-10T14:05:39;3.40;;;2.80;;
38725;SDS011;24474;48.906;8.808;2023-06-10T14:08:06;7.40;;;2.70;;
38725;SDS011;24474;48.906;8.808;2023-06-10T14:10:32;4.55;;;2.60;;
38725;SDS011;24474;48.906;8.808;2023-06-10T14:12:59;4.72;;;2.20;;
38725;SDS011;24474;48.906;8.808;2023-06-10T14:15:27;3.28;;;2.28;;
38725;SDS011;24474;48.906;8.808;2023-06-10T14:17:53;2.42;;;2.10;;
38725;SDS011;24474;48.906;8.808;2023-06-10T14:20:20;3.42;;;2.40;;
38725;SDS011;24474;48.906;8.808;2023-06-10T14:22:46;3.05;;;2.38;;
38725;SDS011;24474;48.906;8.808;2023-06-10T14:25:13;3.35;;;2.72;;
38725;SDS011;24474;48.906;8.808;2023-06-10T14:27:40;2.92;;;2.45;;
38725;SDS011;24474;48.906;8.808;2023-06-10T14:30:08;5.35;;;2.42;;
38725;SDS011;24474;48.906;8.808;2023-06-10T14:32:35;6.63;;;2.65;;
38725;SDS011;24474;48.906;8.808;2023-06-10T14:35:02;4.13;;;2.50;;
38725;SDS011;24474;48.906;8.808;2023-06-10T14:37:29;5.03;;;2.67;;
38725;SDS011;24474;48.906;8.808;2023-06-10T14:39:56;4.53;;;2.38;;
38725;SDS011;24474;48.906;8.808;2023-06-10T14:42:23;3.25;;;2.80;;
38725;SDS011;24474;48.906;8.808;2023-06-10T14:44:50;2.33;;;2.10;;
38725;SDS011;24474;48.906;8.808;2023-06-10T14:47:16;3.90;;;2.38;;
38725;SDS011;24474;48.906;8.808;2023-06-10T14:49:43;5.15;;;2.67;;
38725;SDS011;24474;48.906;8.808;2023-06-10T14:52:10;2.65;;;2.28;;
38725;SDS011;24474;48.906;8.808;2023-06-10T14:54:37;3.92;;;2.35;;
38725;SDS011;24474;48.906;8.808;2023-06-10T14:57:08;4.72;;;2.35;;
38725;SDS011;24474;48.906;8.808;2023-06-10T15:02:04;3.95;;;3.00;;
38725;SDS011;24474;48.906;8.808;2023-06-10T15:04:32;3.80;;;2.57;;
38725;SDS011;24474;48.906;8.808;2023-06-10T15:06:58;3.00;;;2.60;;
38725;SDS011;24474;48.906;8.808;2023-06-10T15:09:25;5.78;;;2.65;;
38725;SDS011;24474;48.906;8.808;2023-06-10T15:11:51;4.15;;;2.58;;
38725;SDS011;24474;48.906;8.808;2023-06-10T15:14:18;4.15;;;2.67;;
38725;SDS011;24474;48.906;8.808;2023-06-10T15:16:44;3.78;;;2.75;;
38725;SDS011;24474;48.906;8.808;2023-06-10T15:19:11;3.28;;;2.40;;
38725;SDS011;24474;48.906;8.808;2023-06-10T15:21:38;3.53;;;2.58;;